ěÝzenÝ letovÚho provozu ╚eskÚ republiky
OPMET data - Ceska Republika Aktualizace: 23.11.2020 18:31:26  UTC
SIGMET / AIRMET - NIL
Warning / Vystraha - NIL
AIREP - NIL
REG QNH
REGIONAL QNH FORECAST ISSUED 2020-11-23 17:43 AREA VALID FM/TL QNH/HPA/ : LKAA 231800/232100 1026 =
 
METAR / SPECI
METAR LKBC 231830Z AUTO 26003KT CAVOK 02/01 Q1029=
METAR LKCV 231830Z 26006KT CAVOK 03/00 Q1029 NOSIG RMK BLU BLU=
METAR LKKB 231830Z 26006KT CAVOK 04/00 Q1029 NOSIG RMK BLU BLU=
METAR LKKU NIL
METAR LKKV 231830Z VRB02KT 9999 R29/1100N BCFG FEW001 M02/M02 Q1029 RMK REG QNH 1026=
METAR LKLN 231830Z AUTO 00000KT CAVOK 01/01 Q1030=
METAR LKMT 231830Z 21009KT 6000 BKN046 02/01 Q1028 TEMPO 4000 BR RMK REG QNH 1026=
METAR LKNA 231830Z 29009KT CAVOK 03/02 Q1028 NOSIG RMK BLU BLU=
METAR LKPD 231830Z 21002KT CAVOK 00/00 Q1029 NOSIG RMK BLACK BLU=
SPECI LKPJ 231830Z AUTO 28004KT 1900 BR BKN001 OVC018 M00/M01 Q1029=
METAR LKPR 231830Z 26008KT CAVOK 02/M00 Q1029 NOSIG RMK REG QNH 1026=
METAR LKTB 231830Z 27005KT 0150 R27/0400N FG OVC001 03/02 Q1029 NOSIG RMK REG QNH 1026=
METAR LKVO NIL
TAF
TAF LKBC NIL
TAF LKCV 231700Z 2318/2418 25006KT CAVOK      BECMG 2321/2323 27004KT 4000 BR SCT006      TEMPO 2323/2410 0500 FZFG VV001      BECMG 2410/2414 14004KT CAVOK      BECMG 2416/2418 15004KT 2000 BR BKN005=
TAF LKKB 231700Z 2318/2418 27008KT CAVOK      BECMG 2322/2400 22004KT 4000 BR SCT006      BECMG 2402/2404 0800 FZFG VV002      TEMPO 2404/2409 0300 FZFG VV001      BECMG 2409/2411 11002KT 3000 BR SCT008      BECMG 2411/2413 9000 SCT012      BECMG 2416/2418 5000 BR BKN004=
TAF LKKU NIL
TAF LKKV 231700Z 2318/2500 27004KT 9999 SCT020      TEMPO 2318/2321 2000 BCFG SCT004      BECMG 2321/2323 VRB02KT 2500 MIFG SCT003      BECMG 2400/2402 0300 FZFG VV001      TEMPO 2402/2409 0800 FZFG OVC002      BECMG 2409/2411 2000 BR BKN005      BECMG 2411/2413 9999 FEW008      BECMG 2415/2417 14004KT      BECMG 2421/2500 2000 MIFG SCT003=
TAF LKLN NIL
TAF LKMT 231700Z 2318/2500 22007KT 6000 NSC      BECMG 2319/2321 2000 MIFG SCT003      BECMG 2321/2323 0700 FZFG OVC003      TEMPO 2401/2409 0300 FZFG VV001      BECMG 2409/2411 22011KT 1700 BR BKN006      BECMG 2411/2413 CAVOK      TEMPO 2421/2500 4000 BR SCT012=
TAF LKNA 231700Z 2318/2418 30007KT CAVOK      BECMG 2321/2323 3000 MIFG BR BKN004      TEMPO 2400/2411 VRB02KT 0400 FZFG VV001      BECMG 2408/2410 14005KT      TEMPO 2413/2418 8000 NSC=
TAF LKPD 231700Z 2318/2418 VRB02KT 7000 NSC      BECMG 2322/2400 3000 MIFG BR SCT010      TEMPO 2400/2408 0400 FZFG VV001      BECMG 2409/2411 CAVOK=
TAF LKPJ NIL
TAF LKPR 231700Z 2318/2500 28007KT 9999 SCT030      BECMG 2320/2322 22006KT CAVOK      BECMG 2323/2401 4000 MIFG SCT003      BECMG 2401/2403 0700 FZFG OVC002      TEMPO 2403/2409 0300 FZFG VV001      BECMG 2409/2411 14004KT 1700 BR BKN005      BECMG 2411/2413 9999 FEW006      BECMG 2417/2420 2500 MIFG SCT003      BECMG 2421/2423 0700 FZFG OVC002=
TAF AMD LKTB 231813Z 2318/2500 VRB02KT 0700 FG OVC002      TEMPO 2318/2409 0200 FZFG VV001      TEMPO 2409/2416 1500 BR SCT010=
TAF LKVO NIL